Capt. Harry — WDC3690 — position and weather

sailwx.info

Track history (hours):
 
Tides and Currents Weather Stations Pressure Air Temp Water Temp Dewpoint Dewpoint Depression Visibility Wind Speed Wind Dir Waves Ship Positions

Capt. Harry

Owner: Wilmington Tug, Inc., New Castle, DE. More information available from US FCC via Universal Licensing System and Coast Guard Vessel Documentation Center.

Last reported at 2017-Oct-18 05:31 UTC. Time now 2017-Oct-18 05:37 UTC.
Position N 39°51' W 075°19'.

Length 24 m; draft 4 m.

Type: Tug. MMSI: 367012530.

Date/timePositionNaut miles runAvg speedWind from/ knotsBaromVisibWave heightAir tempDewpointWater temp
2017-Oct-18 05:31N 39°51' W 075°19'2 4.2
2017-Oct-18 05:00N 39°51' W 075°16'3 6.1
2017-Oct-18 04:30N 39°52' W 075°13'1 3.0
2017-Oct-18 04:00N 39°53' W 075°11'0 0.0
2017-Oct-18 03:30N 39°53' W 075°11'0 0.0
2017-Oct-18 03:00N 39°53' W 075°11'0 0.0
2017-Oct-18 02:30N 39°53' W 075°11'0 0.0
2017-Oct-18 02:00N 39°53' W 075°11'0 0.0
2017-Oct-18 01:30N 39°53' W 075°11'0 0.0
2017-Oct-18 01:00N 39°53' W 075°11'0 0.0
2017-Oct-18 00:31N 39°53' W 075°11'0 0.0
2017-Oct-18 00:00N 39°53' W 075°11'0 0.0
2017-Oct-17 23:31N 39°53' W 075°11'0 0.0
2017-Oct-17 23:01N 39°53' W 075°11'0 0.1
2017-Oct-17 22:30N 39°53' W 075°11'2 3.8
2017-Oct-17 22:00N 39°52' W 075°13'4 8.9
2017-Oct-17 21:30N 39°51' W 075°19'5 9.8
2017-Oct-17 21:00N 39°49' W 075°24'4 8.2
2017-Oct-17 20:31N 39°46' W 075°28'4 7.1
2017-Oct-17 20:00N 39°43' W 075°31'0 0.4
2017-Oct-17 19:30N 39°43' W 075°31'0 0.0
2017-Oct-17 19:00N 39°43' W 075°31'0 0.0
2017-Oct-17 18:30N 39°43' W 075°31'0 0.7
2017-Oct-17 18:01N 39°43' W 075°31'0 0.7
2017-Oct-17 17:31N 39°43' W 075°31'2 4.8
2017-Oct-17 17:00N 39°45' W 075°29'5 9.5
2017-Oct-17 16:30N 39°48' W 075°25'0 0.2
2017-Oct-17 16:00N 39°48' W 075°25'1 1.3
2017-Oct-17 15:31N 39°49' W 075°24'5 9.9
2017-Oct-17 15:00N 39°51' W 075°18'5 9.2
2017-Oct-17 14:30N 39°52' W 075°13'1 1.5
2017-Oct-17 13:30N 39°53' W 075°11'0 0.0
2017-Oct-17 13:00N 39°53' W 075°11'0 0.0
2017-Oct-17 12:30N 39°53' W 075°11'0 0.0
2017-Oct-17 12:00N 39°53' W 075°11'0 0.0
2017-Oct-17 11:30N 39°53' W 075°11'0 0.0
2017-Oct-17 11:00N 39°53' W 075°11'0 0.0
2017-Oct-17 10:30N 39°53' W 075°11'0 0.0
2017-Oct-17 10:01N 39°53' W 075°11'0 0.0
2017-Oct-17 09:30N 39°53' W 075°11'0 0.0
2017-Oct-17 09:01N 39°53' W 075°11'0 0.0
2017-Oct-17 08:30N 39°53' W 075°11'0 0.0
2017-Oct-17 08:01N 39°53' W 075°11'0 0.0
2017-Oct-17 07:30N 39°53' W 075°11'0 0.0
2017-Oct-17 07:00N 39°53' W 075°11'0 0.0
2017-Oct-17 06:30N 39°53' W 075°11'4 7.4
2017-Oct-17 06:00N 39°51' W 075°15'0 0.0
2017-Oct-17 05:30N 39°51' W 075°15'0 0.0
2017-Oct-17 05:00N 39°51' W 075°15'1 2.9
2017-Oct-17 04:30N 39°51' W 075°17'1 2.1
2017-Oct-17 04:00N 39°51' W 075°16'3 6.3
2017-Oct-17 03:30N 39°53' W 075°12'1 1.9
2017-Oct-17 03:00N 39°53' W 075°11'0 0.0
2017-Oct-17 02:30N 39°53' W 075°11'0 0.0
2017-Oct-17 02:00N 39°53' W 075°11'0 0.0
2017-Oct-17 01:31N 39°53' W 075°11'0 0.0
2017-Oct-17 01:00N 39°53' W 075°11'0 0.0
2017-Oct-17 00:30N 39°53' W 075°11'0 0.0
2017-Oct-17 00:00N 39°53' W 075°11'0 0.0
2017-Oct-16 23:30N 39°53' W 075°11'0 0.0
2017-Oct-16 23:00N 39°53' W 075°11'0 0.0
2017-Oct-16 22:30N 39°53' W 075°11'0 0.0
2017-Oct-16 22:01N 39°53' W 075°11'0 0.0
2017-Oct-16 21:31N 39°53' W 075°11'0 0.0
2017-Oct-16 21:01N 39°53' W 075°11'0 0.0
2017-Oct-16 20:31N 39°53' W 075°11'0 0.0
2017-Oct-16 20:01N 39°53' W 075°11'0 0.0
2017-Oct-16 19:29N 39°53' W 075°11'0 0.0
2017-Oct-16 19:01N 39°53' W 075°11'0 0.0
2017-Oct-16 18:31N 39°53' W 075°11'0 0.0
2017-Oct-16 18:01N 39°53' W 075°11'1 2.3
2017-Oct-16 17:30N 39°52' W 075°12'4 8.7
2017-Oct-16 17:00N 39°51' W 075°18'510.2
2017-Oct-16 16:31N 39°49' W 075°24'1 2.1
2017-Oct-16 16:00N 39°48' W 075°25'1 1.6
2017-Oct-16 15:30N 39°49' W 075°24'2 4.1
2017-Oct-16 15:00N 39°48' W 075°26'6 5.9
2017-Oct-16 14:00N 39°43' W 075°31'0 0.0
2017-Oct-16 13:30N 39°43' W 075°31'0 0.0
2017-Oct-16 13:00N 39°43' W 075°31'0 0.0
2017-Oct-16 12:30N 39°43' W 075°31'0 0.0
2017-Oct-16 12:00N 39°43' W 075°31'0 0.0
2017-Oct-16 11:30N 39°43' W 075°31'0 0.0
2017-Oct-16 11:00N 39°43' W 075°31'0 0.3
2017-Oct-16 10:30N 39°43' W 075°31'0 0.5
2017-Oct-16 10:00N 39°43' W 075°31'2 4.8
2017-Oct-16 09:30N 39°41' W 075°31'2 4.3
2017-Oct-16 09:00N 39°43' W 075°31'0 0.8
2017-Oct-16 08:31N 39°43' W 075°31'0 0.0
2017-Oct-16 08:00N 39°43' W 075°31'0 0.0
2017-Oct-16 07:30N 39°43' W 075°31'0 0.0
2017-Oct-16 07:00N 39°43' W 075°31'0 0.0
2017-Oct-16 06:30N 39°43' W 075°31'0 0.0
2017-Oct-16 06:00N 39°43' W 075°31'0 0.0
2017-Oct-16 05:30N 39°43' W 075°31'0 0.0
2017-Oct-16 05:00N 39°43' W 075°31'0 0.0
2017-Oct-16 04:30N 39°43' W 075°31'0 0.0
2017-Oct-16 04:00N 39°43' W 075°31'0 0.0
2017-Oct-16 03:30N 39°43' W 075°31'0 0.0
2017-Oct-16 03:00N 39°43' W 075°31'0 0.0
2017-Oct-16 02:30N 39°43' W 075°31'0 0.0
2017-Oct-16 02:00N 39°43' W 075°31'0 0.0
2017-Oct-16 01:30N 39°43' W 075°31'0 0.0
2017-Oct-16 01:00N 39°43' W 075°31'0 0.0
2017-Oct-16 00:30N 39°43' W 075°31'0 0.0
2017-Oct-16 00:00N 39°43' W 075°31'0 0.0
2017-Oct-15 23:30N 39°43' W 075°31'0 0.0
2017-Oct-15 23:00N 39°43' W 075°31'0 0.0
2017-Oct-15 22:30N 39°43' W 075°31'0 0.0
2017-Oct-15 22:00N 39°43' W 075°31'0 0.0
2017-Oct-15 21:30N 39°43' W 075°31'0 0.0
2017-Oct-15 21:00N 39°43' W 075°31'0 0.0
2017-Oct-15 20:30N 39°43' W 075°31'0 0.0
2017-Oct-15 20:00N 39°43' W 075°31'0 0.0
2017-Oct-15 19:30N 39°43' W 075°31'0 0.0
2017-Oct-15 19:00N 39°43' W 075°31'0 0.0
2017-Oct-15 18:30N 39°43' W 075°31'0 0.0
2017-Oct-15 18:00N 39°43' W 075°31'0 0.0
2017-Oct-15 17:30N 39°43' W 075°31'0 0.0
2017-Oct-15 17:00N 39°43' W 075°31'0 0.0
2017-Oct-15 16:30N 39°43' W 075°31'0 0.0
2017-Oct-15 16:00N 39°43' W 075°31'0 0.0
2017-Oct-15 15:30N 39°43' W 075°31'0 0.0
2017-Oct-15 15:00N 39°43' W 075°31'0 0.0
2017-Oct-15 14:00N 39°43' W 075°31'0 0.0
2017-Oct-15 13:30N 39°43' W 075°31'0 0.0
2017-Oct-15 13:00N 39°43' W 075°31'0 0.2
2017-Oct-15 12:30N 39°43' W 075°31'0 0.2
2017-Oct-15 12:00N 39°43' W 075°31'0 0.0
2017-Oct-15 11:30N 39°43' W 075°31'0 0.0
2017-Oct-15 11:00N 39°43' W 075°31'0 0.0
2017-Oct-15 10:30N 39°43' W 075°31'0 0.0
2017-Oct-15 10:00N 39°43' W 075°31'0 0.0
2017-Oct-15 09:30N 39°43' W 075°31'0 1.0
2017-Oct-15 09:00N 39°43' W 075°31'2 3.8
2017-Oct-15 08:30N 39°41' W 075°31'2 4.2
2017-Oct-15 08:00N 39°43' W 075°31'0 0.5
2017-Oct-15 07:31N 39°43' W 075°31'0 0.0
2017-Oct-15 07:00N 39°43' W 075°31'0 0.0
2017-Oct-15 06:30N 39°43' W 075°31'0 0.0
2017-Oct-15 06:00N 39°43' W 075°31'0 0.0
2017-Oct-15 05:30N 39°43' W 075°31'0 0.0
2017-Oct-15 05:00N 39°43' W 075°31'0 0.0
2017-Oct-15 04:30N 39°43' W 075°31'0 0.0
2017-Oct-15 04:00N 39°43' W 075°31'0 0.0
2017-Oct-15 03:30N 39°43' W 075°31'0 0.0
2017-Oct-15 03:00N 39°43' W 075°31'0 0.0
2017-Oct-15 02:30N 39°43' W 075°31'0 0.0
2017-Oct-15 02:00N 39°43' W 075°31'0 0.0
2017-Oct-15 01:30N 39°43' W 075°31'0 0.0
2017-Oct-15 01:00N 39°43' W 075°31'0 0.0
2017-Oct-15 00:30N 39°43' W 075°31'0 0.0
2017-Oct-15 00:00N 39°43' W 075°31'0 0.0
2017-Oct-14 23:30N 39°43' W 075°31'0 0.0
2017-Oct-14 23:00N 39°43' W 075°31'0 0.0
2017-Oct-14 22:30N 39°43' W 075°31'0 0.0
2017-Oct-14 22:00N 39°43' W 075°31'0 0.0
2017-Oct-14 21:31N 39°43' W 075°31'0 0.0
2017-Oct-14 21:00N 39°43' W 075°31'0 0.0
2017-Oct-14 20:30N 39°43' W 075°31'0 0.0
2017-Oct-14 20:00N 39°43' W 075°31'0 0.0
2017-Oct-14 19:30N 39°43' W 075°31'3 6.6
2017-Oct-14 19:00N 39°46' W 075°29'5 9.8
2017-Oct-14 18:30N 39°49' W 075°24'0 0.2
2017-Oct-14 18:01N 39°49' W 075°24'3 5.0
2017-Oct-14 17:30N 39°47' W 075°27'5 9.8
2017-Oct-14 17:00N 39°43' W 075°30'1 1.5
2017-Oct-14 16:30N 39°43' W 075°31'0 0.0
2017-Oct-14 16:00N 39°43' W 075°31'0 0.0
2017-Oct-14 15:30N 39°43' W 075°31'0 0.0
2017-Oct-14 15:00N 39°43' W 075°31'3 6.3
2017-Oct-14 14:30N 39°40' W 075°32'510.4
2017-Oct-14 14:00N 39°36' W 075°36'0 0.9
2017-Oct-14 13:30N 39°35' W 075°36'1 1.4
2017-Oct-14 13:00N 39°35' W 075°35'2 3.5
2017-Oct-14 12:30N 39°34' W 075°33'2 4.6
2017-Oct-14 12:01N 39°36' W 075°34'1 2.6
2017-Oct-14 11:31N 39°35' W 075°35'1 2.3
2017-Oct-14 11:00N 39°36' W 075°36'510.0
2017-Oct-14 10:30N 39°40' W 075°32'3 6.2
2017-Oct-14 10:01N 39°43' W 075°31'0 0.0
2017-Oct-14 09:30N 39°43' W 075°31'0 0.0
2017-Oct-14 09:00N 39°43' W 075°31'0 0.0
2017-Oct-14 08:30N 39°43' W 075°31'0 0.0
2017-Oct-14 08:01N 39°43' W 075°31'0 0.0
2017-Oct-14 07:31N 39°43' W 075°31'0 0.0
2017-Oct-14 07:01N 39°43' W 075°31'0 0.0
2017-Oct-14 06:31N 39°43' W 075°31'0 0.0
2017-Oct-14 06:00N 39°43' W 075°31'0 0.0
2017-Oct-14 05:31N 39°43' W 075°31'0 0.0
2017-Oct-14 05:00N 39°43' W 075°31'0 0.0
2017-Oct-14 04:31N 39°43' W 075°31'0 0.0
2017-Oct-14 04:01N 39°43' W 075°31'0 0.0
2017-Oct-14 03:30N 39°43' W 075°31'0 0.0
2017-Oct-14 02:31N 39°43' W 075°31'0 0.0
2017-Oct-14 02:31N 39°43' W 075°31'0 0.0
2017-Oct-14 02:00N 39°43' W 075°31'0 0.0
2017-Oct-14 01:28N 39°43' W 075°31'0 0.0
2017-Oct-14 01:01N 39°43' W 075°31'0 0.0
2017-Oct-14 00:30N 39°43' W 075°31'0 0.0
2017-Oct-14 00:00N 39°43' W 075°31'0 0.0
2017-Oct-13 23:30N 39°43' W 075°31'0 0.3
2017-Oct-13 23:00N 39°43' W 075°31'0 0.3
2017-Oct-13 22:30N 39°43' W 075°31'0 0.0
2017-Oct-13 22:01N 39°43' W 075°31'0 0.0
2017-Oct-13 21:30N 39°43' W 075°31'0 0.0
2017-Oct-13 21:00N 39°43' W 075°31'0 0.0
2017-Oct-13 20:30N 39°43' W 075°31'3 6.5
2017-Oct-13 20:00N 39°40' W 075°33'510.7
2017-Oct-13 19:30N 39°35' W 075°36'2 4.3
2017-Oct-13 19:00N 39°34' W 075°33'2 4.4
2017-Oct-13 18:30N 39°35' W 075°36'0 0.4
2017-Oct-13 18:00N 39°35' W 075°36'3 6.3
2017-Oct-13 17:30N 39°38' W 075°35'611.0
2017-Oct-13 17:00N 39°43' W 075°31'0 0.1
2017-Oct-13 16:30N 39°43' W 075°31'0 0.0
2017-Oct-13 16:00N 39°43' W 075°31'0 0.0
2017-Oct-13 15:30N 39°43' W 075°31'0 0.0
2017-Oct-13 15:00N 39°43' W 075°31'0 0.0
2017-Oct-13 14:30N 39°43' W 075°31'0 0.0
2017-Oct-13 14:01N 39°43' W 075°31'0 0.0
2017-Oct-13 13:30N 39°43' W 075°31'0 0.0
2017-Oct-13 13:00N 39°43' W 075°31'0 0.0
2017-Oct-13 12:30N 39°43' W 075°31'0 0.0
2017-Oct-13 12:01N 39°43' W 075°31'0 0.0
2017-Oct-13 11:30N 39°43' W 075°31'0 0.0
2017-Oct-13 11:00N 39°43' W 075°31'0 0.0
2017-Oct-13 10:30N 39°43' W 075°31'0 0.0
2017-Oct-13 10:01N 39°43' W 075°31'0 0.0
2017-Oct-13 09:30N 39°43' W 075°31'0 0.0
2017-Oct-13 09:00N 39°43' W 075°31'0 0.0
2017-Oct-13 08:30N 39°43' W 075°31'0 0.0
2017-Oct-13 08:00N 39°43' W 075°31'0 0.0
2017-Oct-13 07:30N 39°43' W 075°31'0 0.0
2017-Oct-13 07:00N 39°43' W 075°31'0 0.0
2017-Oct-13 06:30N 39°43' W 075°31'0 0.0
2017-Oct-13 06:00N 39°43' W 075°31'0 0.0
2017-Oct-13 05:31N 39°43' W 075°31'0 0.0
2017-Oct-13 05:00N 39°43' W 075°31'0 0.0
2017-Oct-13 04:30N 39°43' W 075°31'0 0.0
2017-Oct-13 04:00N 39°43' W 075°31'0 0.0
2017-Oct-13 03:30N 39°43' W 075°31'0 0.0
2017-Oct-13 03:00N 39°43' W 075°31'0 0.0
2017-Oct-13 02:30N 39°43' W 075°31'0 0.0
2017-Oct-13 02:00N 39°43' W 075°31'0 0.0
2017-Oct-13 01:30N 39°43' W 075°31'0 0.0
2017-Oct-13 01:00N 39°43' W 075°31'0 0.0
2017-Oct-13 00:30N 39°43' W 075°31'0 0.0
2017-Oct-13 00:00N 39°43' W 075°31'0 0.6
2017-Oct-12 23:31N 39°43' W 075°31'611.5
2017-Oct-12 23:00N 39°48' W 075°26'2 3.5
2017-Oct-12 22:30N 39°49' W 075°24'0 0.0
2017-Oct-12 22:00N 39°49' W 075°24'0 0.0
2017-Oct-12 21:30N 39°49' W 075°24'0 0.5
2017-Oct-12 21:00N 39°49' W 075°24'2 3.1
2017-Oct-12 20:30N 39°48' W 075°26'4 7.9
2017-Oct-12 20:00N 39°45' W 075°29'2 4.5
2017-Oct-12 19:31N 39°43' W 075°31'0 0.0
2017-Oct-12 19:00N 39°43' W 075°31'0 0.0
2017-Oct-12 18:31N 39°43' W 075°31'0 0.0
2017-Oct-12 18:00N 39°43' W 075°31'0 0.0
2017-Oct-12 17:30N 39°43' W 075°31'0 0.0
2017-Oct-12 17:00N 39°43' W 075°31'0 0.0
2017-Oct-12 16:30N 39°43' W 075°31'0 0.0
2017-Oct-12 16:00N 39°43' W 075°31'0 0.0
2017-Oct-12 15:31N 39°43' W 075°31'0 0.0
2017-Oct-12 15:00N 39°43' W 075°31'0 0.0
2017-Oct-12 14:30N 39°43' W 075°31'0 0.0
2017-Oct-12 14:00N 39°43' W 075°31'0 0.0
2017-Oct-12 13:30N 39°43' W 075°31'0 0.0
2017-Oct-12 13:00N 39°43' W 075°31'0 0.0
2017-Oct-12 12:30N 39°43' W 075°31'0 0.0
2017-Oct-12 12:00N 39°43' W 075°31'0 0.0
2017-Oct-12 11:30N 39°43' W 075°31'0 0.0
2017-Oct-12 11:00N 39°43' W 075°31'5 9.0
2017-Oct-12 10:30N 39°47' W 075°28'3 5.2
2017-Oct-12 10:00N 39°48' W 075°25'0 0.0
2017-Oct-12 09:30N 39°48' W 075°25'1 2.1
2017-Oct-12 09:00N 39°48' W 075°26'1 2.5
2017-Oct-12 08:30N 39°48' W 075°25'1 2.1
2017-Oct-12 08:00N 39°49' W 075°24'5 9.5
2017-Oct-12 07:30N 39°51' W 075°18'510.4
2017-Oct-12 07:01N 39°53' W 075°12'1 1.4
2017-Oct-12 06:30N 39°53' W 075°11'0 0.0
2017-Oct-12 06:00N 39°53' W 075°11'0 0.0
2017-Oct-12 05:31N 39°53' W 075°11'0 0.0
2017-Oct-12 05:00N 39°53' W 075°11'0 0.0
2017-Oct-12 04:30N 39°53' W 075°11'0 0.0
2017-Oct-12 04:01N 39°53' W 075°11'0 0.0
2017-Oct-12 03:30N 39°53' W 075°11'0 0.0
2017-Oct-12 03:00N 39°53' W 075°11'0 0.0
2017-Oct-12 02:30N 39°53' W 075°11'0 0.0
2017-Oct-12 02:01N 39°53' W 075°11'0 0.0
2017-Oct-12 01:30N 39°53' W 075°11'0 0.0
2017-Oct-12 01:01N 39°53' W 075°11'0 0.0
2017-Oct-12 00:30N 39°53' W 075°11'0 0.0
2017-Oct-12 00:01N 39°53' W 075°11'0 0.0
2017-Oct-11 23:31N 39°53' W 075°11'0 0.0
2017-Oct-11 23:01N 39°53' W 075°11'0 0.0
2017-Oct-11 22:31N 39°53' W 075°11'0 0.0
2017-Oct-11 22:01N 39°53' W 075°11'0 0.0
2017-Oct-11 21:31N 39°53' W 075°11'0 0.0
2017-Oct-11 21:00N 39°53' W 075°11'0 1.0
2017-Oct-11 20:31N 39°53' W 075°11'3 6.5
2017-Oct-11 20:01N 39°56' W 075°08'3 7.0
2017-Oct-11 19:31N 39°59' W 075°06'1 1.8
2017-Oct-11 19:00N 39°59' W 075°04'0 0.0
2017-Oct-11 18:31N 39°59' W 075°04'0 0.0
2017-Oct-11 18:00N 39°59' W 075°04'1 1.6
2017-Oct-11 17:30N 39°59' W 075°05'4 7.8
2017-Oct-11 17:00N 39°55' W 075°08'6 0.4
2017-Oct-11 00:00N 40°00' W 075°03'4 8.9
2017-Oct-10 23:30N 40°03' W 074°59'5 9.2
2017-Oct-10 23:00N 40°05' W 074°53'4 7.1
2017-Oct-10 22:30N 40°07' W 074°50'4 7.3
2017-Oct-10 22:00N 40°08' W 074°45'0 0.2
2017-Oct-10 21:19N 40°08' W 074°45'0 0.2
2017-Oct-10 21:00N 40°08' W 074°45'0 0.0
2017-Oct-10 20:29N 40°08' W 074°45'0 0.0
2017-Oct-10 20:01N 40°08' W 074°45'0 0.0
2017-Oct-10 19:23N 40°08' W 074°45'0 0.0
2017-Oct-10 19:00N 40°08' W 074°45'0 0.0
2017-Oct-10 18:30N 40°08' W 074°45'0 0.0
2017-Oct-10 17:58N 40°08' W 074°45'0 0.0
2017-Oct-10 17:29N 40°08' W 074°45'0 0.0
2017-Oct-10 17:00N 40°08' W 074°45'0 0.0
2017-Oct-10 16:26N 40°08' W 074°45'0 0.0
2017-Oct-10 15:59N 40°08' W 074°45'3 5.6
2017-Oct-10 15:30N 40°08' W 074°49'3 6.9
2017-Oct-10 15:00N 40°05' W 074°52'7 6.7
2017-Oct-10 14:00N 40°02' W 074°60'4 7.1
2017-Oct-10 13:30N 40°00' W 075°03'2 3.3
2017-Oct-10 13:00N 39°59' W 075°04'0 0.0
2017-Oct-10 12:30N 39°59' W 075°04'0 0.0
2017-Oct-10 12:01N 39°59' W 075°04'0 0.4
2017-Oct-10 11:31N 39°59' W 075°05'3 5.3
2017-Oct-10 11:00N 39°58' W 075°08'2 3.4
2017-Oct-10 10:30N 39°59' W 075°06'0 0.1
2017-Oct-10 10:00N 39°59' W 075°06'2 4.3
2017-Oct-10 09:31N 39°57' W 075°08'4 8.4
2017-Oct-10 09:00N 39°53' W 075°09'2 3.8
2017-Oct-10 08:31N 39°53' W 075°11'0 0.0
2017-Oct-10 08:00N 39°53' W 075°11'0 0.0
2017-Oct-10 07:31N 39°53' W 075°11'0 0.0
2017-Oct-10 07:01N 39°53' W 075°11'0 0.0
2017-Oct-10 06:31N 39°53' W 075°11'0 0.0
2017-Oct-10 06:00N 39°53' W 075°11'1 2.8
2017-Oct-10 05:31N 39°52' W 075°13'3 6.4
2017-Oct-10 05:01N 39°51' W 075°16'0 0.1
2017-Oct-10 04:30N 39°51' W 075°16'5 9.1
2017-Oct-10 04:00N 39°53' W 075°11'0 0.0
2017-Oct-10 03:30N 39°53' W 075°11'0 0.0
2017-Oct-10 03:00N 39°53' W 075°11'0 0.0
2017-Oct-10 02:31N 39°53' W 075°11'0 0.0
2017-Oct-10 02:01N 39°53' W 075°11'0 0.0
2017-Oct-10 01:31N 39°53' W 075°11'0 0.0
2017-Oct-10 01:00N 39°53' W 075°11'0 0.0
2017-Oct-10 00:30N 39°53' W 075°11'0 0.0
2017-Oct-10 00:01N 39°53' W 075°11'0 0.0
2017-Oct-09 23:30N 39°53' W 075°11'0 0.0
2017-Oct-09 23:00N 39°53' W 075°11'0 0.0
2017-Oct-09 22:31N 39°53' W 075°11'0 0.0
2017-Oct-09 22:01N 39°53' W 075°11'0 0.0
2017-Oct-09 21:31N 39°53' W 075°11'0 0.0
2017-Oct-09 21:00N 39°53' W 075°11'0 0.0
2017-Oct-09 20:31N 39°53' W 075°11'0 0.0
2017-Oct-09 20:01N 39°53' W 075°11'0 0.0
2017-Oct-09 19:30N 39°53' W 075°11'0 0.0
2017-Oct-09 19:00N 39°53' W 075°11'0 0.0
2017-Oct-09 18:30N 39°53' W 075°11'0 0.0
2017-Oct-09 18:00N 39°53' W 075°11'0 0.0
2017-Oct-09 17:30N 39°53' W 075°11'0 0.0
2017-Oct-09 17:00N 39°53' W 075°11'2 4.4
2017-Oct-09 16:30N 39°52' W 075°13'0 0.1
2017-Oct-09 16:01N 39°52' W 075°13'0 0.6
2017-Oct-09 15:31N 39°52' W 075°13'2 3.8
2017-Oct-09 15:00N 39°53' W 075°11'0 0.0
2017-Oct-09 14:30N 39°53' W 075°11'0 0.0
2017-Oct-09 14:00N 39°53' W 075°11'0 0.0
2017-Oct-09 13:30N 39°53' W 075°11'0 0.0
2017-Oct-09 13:00N 39°53' W 075°11'0 0.0
2017-Oct-09 12:31N 39°53' W 075°11'0 0.0
2017-Oct-09 12:00N 39°53' W 075°11'0 0.0
2017-Oct-09 11:30N 39°53' W 075°11'2 4.4
2017-Oct-09 11:00N 39°54' W 075°08'4 8.4
2017-Oct-09 10:30N 39°58' W 075°08'4 8.4
2017-Oct-09 10:00N 40°00' W 075°03'5 9.5
2017-Oct-09 09:30N 40°03' W 074°58'4 8.9
2017-Oct-09 09:01N 40°05' W 074°53'4 7.8
2017-Oct-09 08:30N 40°08' W 074°49'3 4.0
2017-Oct-09 07:42N 40°08' W 074°45'0 1.0
2017-Oct-09 07:29N 40°08' W 074°45'2 4.6
2017-Oct-09 07:00N 40°07' W 074°48'2 4.7
2017-Oct-09 06:31N 40°08' W 074°45'0 0.0
2017-Oct-09 06:01N 40°08' W 074°45'0 0.0
2017-Oct-09 05:30N 40°08' W 074°45'0 0.0
2017-Oct-09 05:01N 40°08' W 074°45'0 0.0
2017-Oct-09 04:31N 40°08' W 074°45'0 0.0
2017-Oct-09 04:01N 40°08' W 074°45'0 0.0
2017-Oct-09 03:30N 40°08' W 074°45'0 0.0
2017-Oct-09 03:01N 40°08' W 074°45'0 0.0
2017-Oct-09 02:31N 40°08' W 074°45'0 0.0
2017-Oct-09 02:01N 40°08' W 074°45'0 0.0
2017-Oct-09 01:30N 40°08' W 074°45'0 0.0
2017-Oct-09 01:01N 40°08' W 074°45'0 0.0
2017-Oct-09 00:31N 40°08' W 074°45'2 3.4
2017-Oct-08 23:54N 40°07' W 074°48'2 5.6
2017-Oct-08 23:30N 40°06' W 074°50'4 7.5
2017-Oct-08 23:01N 40°04' W 074°54'4 8.3
2017-Oct-08 22:30N 40°03' W 074°59'4 8.0
2017-Oct-08 22:00N 40°00' W 075°03'3 5.0
2017-Oct-08 21:31N 39°59' W 075°06'0 0.2
2017-Oct-08 21:01N 39°58' W 075°06'2 3.7
2017-Oct-08 20:31N 39°58' W 075°08'3 6.6
2017-Oct-08 20:00N 39°54' W 075°08'0 0.0
2017-Oct-08 19:31N 39°54' W 075°08'0 0.0
2017-Oct-08 19:00N 39°54' W 075°08'4 8.5
2017-Oct-08 18:30N 39°52' W 075°13'0 0.7
2017-Oct-08 18:00N 39°52' W 075°13'0 0.0
2017-Oct-08 17:30N 39°52' W 075°13'1 1.3
2017-Oct-08 17:00N 39°51' W 075°14'1 1.4
2017-Oct-08 16:30N 39°52' W 075°13'2 3.7
2017-Oct-08 16:00N 39°53' W 075°11'0 0.0
2017-Oct-08 15:30N 39°53' W 075°11'0 0.0
2017-Oct-08 15:01N 39°53' W 075°11'0 0.0
2017-Oct-08 14:30N 39°53' W 075°11'0 0.0
2017-Oct-08 14:00N 39°53' W 075°11'0 0.0
2017-Oct-08 13:31N 39°53' W 075°11'0 0.0
2017-Oct-08 13:00N 39°53' W 075°11'0 0.0
2017-Oct-08 12:30N 39°53' W 075°11'0 0.0
2017-Oct-08 12:01N 39°53' W 075°11'0 0.0
2017-Oct-08 11:30N 39°53' W 075°11'0 0.0
2017-Oct-08 11:01N 39°53' W 075°11'0 0.0
2017-Oct-08 10:30N 39°53' W 075°11'0 0.0
2017-Oct-08 10:01N 39°53' W 075°11'0 0.0
2017-Oct-08 09:31N 39°53' W 075°11'0 0.0
2017-Oct-08 09:01N 39°53' W 075°11'0 0.0
2017-Oct-08 08:31N 39°53' W 075°11'0 0.0
2017-Oct-08 08:01N 39°53' W 075°11'0 0.0
2017-Oct-08 07:31N 39°53' W 075°11'0 0.0
2017-Oct-08 07:01N 39°53' W 075°11'0 0.0
2017-Oct-08 06:30N 39°53' W 075°11'0 0.0
2017-Oct-08 06:00N 39°53' W 075°11'  
Track history (hours):
 
Tides and Currents Weather Stations Pressure Air Temp Water Temp Dewpoint Dewpoint Depression Visibility Wind Speed Wind Dir Waves Ship Positions

Capt. Harry

Owner: Wilmington Tug, Inc., New Castle, DE. More information available from US FCC via Universal Licensing System and Coast Guard Vessel Documentation Center.

Last reported at 2017-Oct-18 05:31 UTC. Time now 2017-Oct-18 05:37 UTC.
Position N 39°51' W 075°19'.

Length 24 m; draft 4 m.

Type: Tug. MMSI: 367012530.

Date/timePositionNaut miles runAvg speedWind from/ knotsBaromVisibWave heightAir tempDewpointWater temp
2017-Oct-18 05:31N 39°51' W 075°19'2 4.2
2017-Oct-18 05:00N 39°51' W 075°16'3 6.1
2017-Oct-18 04:30N 39°52' W 075°13'1 3.0
2017-Oct-18 04:00N 39°53' W 075°11'0 0.0
2017-Oct-18 03:30N 39°53' W 075°11'0 0.0
2017-Oct-18 03:00N 39°53' W 075°11'0 0.0
2017-Oct-18 02:30N 39°53' W 075°11'0 0.0
2017-Oct-18 02:00N 39°53' W 075°11'0 0.0
2017-Oct-18 01:30N 39°53' W 075°11'0 0.0
2017-Oct-18 01:00N 39°53' W 075°11'0 0.0
2017-Oct-18 00:31N 39°53' W 075°11'0 0.0
2017-Oct-18 00:00N 39°53' W 075°11'0 0.0
2017-Oct-17 23:31N 39°53' W 075°11'0 0.0
2017-Oct-17 23:01N 39°53' W 075°11'0 0.1
2017-Oct-17 22:30N 39°53' W 075°11'2 3.8
2017-Oct-17 22:00N 39°52' W 075°13'4 8.9
2017-Oct-17 21:30N 39°51' W 075°19'5 9.8
2017-Oct-17 21:00N 39°49' W 075°24'4 8.2
2017-Oct-17 20:31N 39°46' W 075°28'4 7.1
2017-Oct-17 20:00N 39°43' W 075°31'0 0.4
2017-Oct-17 19:30N 39°43' W 075°31'0 0.0
2017-Oct-17 19:00N 39°43' W 075°31'0 0.0
2017-Oct-17 18:30N 39°43' W 075°31'0 0.7
2017-Oct-17 18:01N 39°43' W 075°31'0 0.7
2017-Oct-17 17:31N 39°43' W 075°31'2 4.8
2017-Oct-17 17:00N 39°45' W 075°29'5 9.5
2017-Oct-17 16:30N 39°48' W 075°25'0 0.2
2017-Oct-17 16:00N 39°48' W 075°25'1 1.3
2017-Oct-17 15:31N 39°49' W 075°24'5 9.9
2017-Oct-17 15:00N 39°51' W 075°18'5 9.2
2017-Oct-17 14:30N 39°52' W 075°13'1 1.5
2017-Oct-17 13:30N 39°53' W 075°11'0 0.0
2017-Oct-17 13:00N 39°53' W 075°11'0 0.0
2017-Oct-17 12:30N 39°53' W 075°11'0 0.0
2017-Oct-17 12:00N 39°53' W 075°11'0 0.0
2017-Oct-17 11:30N 39°53' W 075°11'0 0.0
2017-Oct-17 11:00N 39°53' W 075°11'0 0.0
2017-Oct-17 10:30N 39°53' W 075°11'0 0.0
2017-Oct-17 10:01N 39°53' W 075°11'0 0.0
2017-Oct-17 09:30N 39°53' W 075°11'0 0.0
2017-Oct-17 09:01N 39°53' W 075°11'0 0.0
2017-Oct-17 08:30N 39°53' W 075°11'0 0.0
2017-Oct-17 08:01N 39°53' W 075°11'0 0.0
2017-Oct-17 07:30N 39°53' W 075°11'0 0.0
2017-Oct-17 07:00N 39°53' W 075°11'0 0.0
2017-Oct-17 06:30N 39°53' W 075°11'4 7.4
2017-Oct-17 06:00N 39°51' W 075°15'0 0.0
2017-Oct-17 05:30N 39°51' W 075°15'0 0.0
2017-Oct-17 05:00N 39°51' W 075°15'1 2.9
2017-Oct-17 04:30N 39°51' W 075°17'1 2.1
2017-Oct-17 04:00N 39°51' W 075°16'3 6.3
2017-Oct-17 03:30N 39°53' W 075°12'1 1.9
2017-Oct-17 03:00N 39°53' W 075°11'0 0.0
2017-Oct-17 02:30N 39°53' W 075°11'0 0.0
2017-Oct-17 02:00N 39°53' W 075°11'0 0.0
2017-Oct-17 01:31N 39°53' W 075°11'0 0.0
2017-Oct-17 01:00N 39°53' W 075°11'0 0.0
2017-Oct-17 00:30N 39°53' W 075°11'0 0.0
2017-Oct-17 00:00N 39°53' W 075°11'0 0.0
2017-Oct-16 23:30N 39°53' W 075°11'0 0.0
2017-Oct-16 23:00N 39°53' W 075°11'0 0.0
2017-Oct-16 22:30N 39°53' W 075°11'0 0.0
2017-Oct-16 22:01N 39°53' W 075°11'0 0.0
2017-Oct-16 21:31N 39°53' W 075°11'0 0.0
2017-Oct-16 21:01N 39°53' W 075°11'0 0.0
2017-Oct-16 20:31N 39°53' W 075°11'0 0.0
2017-Oct-16 20:01N 39°53' W 075°11'0 0.0
2017-Oct-16 19:29N 39°53' W 075°11'0 0.0
2017-Oct-16 19:01N 39°53' W 075°11'0 0.0
2017-Oct-16 18:31N 39°53' W 075°11'0 0.0
2017-Oct-16 18:01N 39°53' W 075°11'1 2.3
2017-Oct-16 17:30N 39°52' W 075°12'4 8.7
2017-Oct-16 17:00N 39°51' W 075°18'510.2
2017-Oct-16 16:31N 39°49' W 075°24'1 2.1
2017-Oct-16 16:00N 39°48' W 075°25'1 1.6
2017-Oct-16 15:30N 39°49' W 075°24'2 4.1
2017-Oct-16 15:00N 39°48' W 075°26'6 5.9
2017-Oct-16 14:00N 39°43' W 075°31'0 0.0
2017-Oct-16 13:30N 39°43' W 075°31'0 0.0
2017-Oct-16 13:00N 39°43' W 075°31'0 0.0
2017-Oct-16 12:30N 39°43' W 075°31'0 0.0
2017-Oct-16 12:00N 39°43' W 075°31'0 0.0
2017-Oct-16 11:30N 39°43' W 075°31'0 0.0
2017-Oct-16 11:00N 39°43' W 075°31'0 0.3
2017-Oct-16 10:30N 39°43' W 075°31'0 0.5
2017-Oct-16 10:00N 39°43' W 075°31'2 4.8
2017-Oct-16 09:30N 39°41' W 075°31'2 4.3
2017-Oct-16 09:00N 39°43' W 075°31'0 0.8
2017-Oct-16 08:31N 39°43' W 075°31'0 0.0
2017-Oct-16 08:00N 39°43' W 075°31'0 0.0
2017-Oct-16 07:30N 39°43' W 075°31'0 0.0
2017-Oct-16 07:00N 39°43' W 075°31'0 0.0
2017-Oct-16 06:30N 39°43' W 075°31'0 0.0
2017-Oct-16 06:00N 39°43' W 075°31'0 0.0
2017-Oct-16 05:30N 39°43' W 075°31'0 0.0
2017-Oct-16 05:00N 39°43' W 075°31'0 0.0
2017-Oct-16 04:30N 39°43' W 075°31'0 0.0
2017-Oct-16 04:00N 39°43' W 075°31'0 0.0
2017-Oct-16 03:30N 39°43' W 075°31'0 0.0
2017-Oct-16 03:00N 39°43' W 075°31'0 0.0
2017-Oct-16 02:30N 39°43' W 075°31'0 0.0
2017-Oct-16 02:00N 39°43' W 075°31'0 0.0
2017-Oct-16 01:30N 39°43' W 075°31'0 0.0
2017-Oct-16 01:00N 39°43' W 075°31'0 0.0
2017-Oct-16 00:30N 39°43' W 075°31'0 0.0
2017-Oct-16 00:00N 39°43' W 075°31'0 0.0
2017-Oct-15 23:30N 39°43' W 075°31'0 0.0
2017-Oct-15 23:00N 39°43' W 075°31'0 0.0
2017-Oct-15 22:30N 39°43' W 075°31'0 0.0
2017-Oct-15 22:00N 39°43' W 075°31'0 0.0
2017-Oct-15 21:30N 39°43' W 075°31'0 0.0
2017-Oct-15 21:00N 39°43' W 075°31'0 0.0
2017-Oct-15 20:30N 39°43' W 075°31'0 0.0
2017-Oct-15 20:00N 39°43' W 075°31'0 0.0
2017-Oct-15 19:30N 39°43' W 075°31'0 0.0
2017-Oct-15 19:00N 39°43' W 075°31'0 0.0
2017-Oct-15 18:30N 39°43' W 075°31'0 0.0
2017-Oct-15 18:00N 39°43' W 075°31'0 0.0
2017-Oct-15 17:30N 39°43' W 075°31'0 0.0
2017-Oct-15 17:00N 39°43' W 075°31'0 0.0
2017-Oct-15 16:30N 39°43' W 075°31'0 0.0
2017-Oct-15 16:00N 39°43' W 075°31'0 0.0
2017-Oct-15 15:30N 39°43' W 075°31'0 0.0
2017-Oct-15 15:00N 39°43' W 075°31'0 0.0
2017-Oct-15 14:00N 39°43' W 075°31'0 0.0
2017-Oct-15 13:30N 39°43' W 075°31'0 0.0
2017-Oct-15 13:00N 39°43' W 075°31'0 0.2
2017-Oct-15 12:30N 39°43' W 075°31'0 0.2
2017-Oct-15 12:00N 39°43' W 075°31'0 0.0
2017-Oct-15 11:30N 39°43' W 075°31'0 0.0
2017-Oct-15 11:00N 39°43' W 075°31'0 0.0
2017-Oct-15 10:30N 39°43' W 075°31'0 0.0
2017-Oct-15 10:00N 39°43' W 075°31'0 0.0
2017-Oct-15 09:30N 39°43' W 075°31'0 1.0
2017-Oct-15 09:00N 39°43' W 075°31'2 3.8
2017-Oct-15 08:30N 39°41' W 075°31'2 4.2
2017-Oct-15 08:00N 39°43' W 075°31'0 0.5
2017-Oct-15 07:31N 39°43' W 075°31'0 0.0
2017-Oct-15 07:00N 39°43' W 075°31'0 0.0
2017-Oct-15 06:30N 39°43' W 075°31'0 0.0
2017-Oct-15 06:00N 39°43' W 075°31'0 0.0
2017-Oct-15 05:30N 39°43' W 075°31'0 0.0
2017-Oct-15 05:00N 39°43' W 075°31'0 0.0
2017-Oct-15 04:30N 39°43' W 075°31'0 0.0
2017-Oct-15 04:00N 39°43' W 075°31'0 0.0
2017-Oct-15 03:30N 39°43' W 075°31'0 0.0
2017-Oct-15 03:00N 39°43' W 075°31'0 0.0
2017-Oct-15 02:30N 39°43' W 075°31'0 0.0
2017-Oct-15 02:00N 39°43' W 075°31'0 0.0
2017-Oct-15 01:30N 39°43' W 075°31'0 0.0
2017-Oct-15 01:00N 39°43' W 075°31'0 0.0
2017-Oct-15 00:30N 39°43' W 075°31'0 0.0
2017-Oct-15 00:00N 39°43' W 075°31'0 0.0
2017-Oct-14 23:30N 39°43' W 075°31'0 0.0
2017-Oct-14 23:00N 39°43' W 075°31'0 0.0
2017-Oct-14 22:30N 39°43' W 075°31'0 0.0
2017-Oct-14 22:00N 39°43' W 075°31'0 0.0
2017-Oct-14 21:31N 39°43' W 075°31'0 0.0
2017-Oct-14 21:00N 39°43' W 075°31'0 0.0
2017-Oct-14 20:30N 39°43' W 075°31'0 0.0
2017-Oct-14 20:00N 39°43' W 075°31'0 0.0
2017-Oct-14 19:30N 39°43' W 075°31'3 6.6
2017-Oct-14 19:00N 39°46' W 075°29'5 9.8
2017-Oct-14 18:30N 39°49' W 075°24'0 0.2
2017-Oct-14 18:01N 39°49' W 075°24'3 5.0
2017-Oct-14 17:30N 39°47' W 075°27'5 9.8
2017-Oct-14 17:00N 39°43' W 075°30'1 1.5
2017-Oct-14 16:30N 39°43' W 075°31'0 0.0
2017-Oct-14 16:00N 39°43' W 075°31'0 0.0
2017-Oct-14 15:30N 39°43' W 075°31'0 0.0
2017-Oct-14 15:00N 39°43' W 075°31'3 6.3
2017-Oct-14 14:30N 39°40' W 075°32'510.4
2017-Oct-14 14:00N 39°36' W 075°36'0 0.9
2017-Oct-14 13:30N 39°35' W 075°36'1 1.4
2017-Oct-14 13:00N 39°35' W 075°35'2 3.5
2017-Oct-14 12:30N 39°34' W 075°33'2 4.6
2017-Oct-14 12:01N 39°36' W 075°34'1 2.6
2017-Oct-14 11:31N 39°35' W 075°35'1 2.3
2017-Oct-14 11:00N 39°36' W 075°36'510.0
2017-Oct-14 10:30N 39°40' W 075°32'3 6.2
2017-Oct-14 10:01N 39°43' W 075°31'0 0.0
2017-Oct-14 09:30N 39°43' W 075°31'0 0.0
2017-Oct-14 09:00N 39°43' W 075°31'0 0.0
2017-Oct-14 08:30N 39°43' W 075°31'0 0.0
2017-Oct-14 08:01N 39°43' W 075°31'0 0.0
2017-Oct-14 07:31N 39°43' W 075°31'0 0.0
2017-Oct-14 07:01N 39°43' W 075°31'0 0.0
2017-Oct-14 06:31N 39°43' W 075°31'0 0.0
2017-Oct-14 06:00N 39°43' W 075°31'0 0.0
2017-Oct-14 05:31N 39°43' W 075°31'0 0.0
2017-Oct-14 05:00N 39°43' W 075°31'0 0.0
2017-Oct-14 04:31N 39°43' W 075°31'0 0.0
2017-Oct-14 04:01N 39°43' W 075°31'0 0.0
2017-Oct-14 03:30N 39°43' W 075°31'0 0.0
2017-Oct-14 02:31N 39°43' W 075°31'0 0.0
2017-Oct-14 02:31N 39°43' W 075°31'0 0.0
2017-Oct-14 02:00N 39°43' W 075°31'0 0.0
2017-Oct-14 01:28N 39°43' W 075°31'0 0.0
2017-Oct-14 01:01N 39°43' W 075°31'0 0.0
2017-Oct-14 00:30N 39°43' W 075°31'0 0.0
2017-Oct-14 00:00N 39°43' W 075°31'0 0.0
2017-Oct-13 23:30N 39°43' W 075°31'0 0.3
2017-Oct-13 23:00N 39°43' W 075°31'0 0.3
2017-Oct-13 22:30N 39°43' W 075°31'0 0.0
2017-Oct-13 22:01N 39°43' W 075°31'0 0.0
2017-Oct-13 21:30N 39°43' W 075°31'0 0.0
2017-Oct-13 21:00N 39°43' W 075°31'0 0.0
2017-Oct-13 20:30N 39°43' W 075°31'3 6.5
2017-Oct-13 20:00N 39°40' W 075°33'510.7
2017-Oct-13 19:30N 39°35' W 075°36'2 4.3
2017-Oct-13 19:00N 39°34' W 075°33'2 4.4
2017-Oct-13 18:30N 39°35' W 075°36'0 0.4
2017-Oct-13 18:00N 39°35' W 075°36'3 6.3
2017-Oct-13 17:30N 39°38' W 075°35'611.0
2017-Oct-13 17:00N 39°43' W 075°31'0 0.1
2017-Oct-13 16:30N 39°43' W 075°31'0 0.0
2017-Oct-13 16:00N 39°43' W 075°31'0 0.0
2017-Oct-13 15:30N 39°43' W 075°31'0 0.0
2017-Oct-13 15:00N 39°43' W 075°31'0 0.0
2017-Oct-13 14:30N 39°43' W 075°31'0 0.0
2017-Oct-13 14:01N 39°43' W 075°31'0 0.0
2017-Oct-13 13:30N 39°43' W 075°31'0 0.0
2017-Oct-13 13:00N 39°43' W 075°31'0 0.0
2017-Oct-13 12:30N 39°43' W 075°31'0 0.0
2017-Oct-13 12:01N 39°43' W 075°31'0 0.0
2017-Oct-13 11:30N 39°43' W 075°31'0 0.0
2017-Oct-13 11:00N 39°43' W 075°31'0 0.0
2017-Oct-13 10:30N 39°43' W 075°31'0 0.0
2017-Oct-13 10:01N 39°43' W 075°31'0 0.0
2017-Oct-13 09:30N 39°43' W 075°31'0 0.0
2017-Oct-13 09:00N 39°43' W 075°31'0 0.0
2017-Oct-13 08:30N 39°43' W 075°31'0 0.0
2017-Oct-13 08:00N 39°43' W 075°31'0 0.0
2017-Oct-13 07:30N 39°43' W 075°31'0 0.0
2017-Oct-13 07:00N 39°43' W 075°31'0 0.0
2017-Oct-13 06:30N 39°43' W 075°31'0 0.0
2017-Oct-13 06:00N 39°43' W 075°31'0 0.0
2017-Oct-13 05:31N 39°43' W 075°31'0 0.0
2017-Oct-13 05:00N 39°43' W 075°31'0 0.0
2017-Oct-13 04:30N 39°43' W 075°31'0 0.0
2017-Oct-13 04:00N 39°43' W 075°31'0 0.0
2017-Oct-13 03:30N 39°43' W 075°31'0 0.0
2017-Oct-13 03:00N 39°43' W 075°31'0 0.0
2017-Oct-13 02:30N 39°43' W 075°31'0 0.0
2017-Oct-13 02:00N 39°43' W 075°31'0 0.0
2017-Oct-13 01:30N 39°43' W 075°31'0 0.0
2017-Oct-13 01:00N 39°43' W 075°31'0 0.0
2017-Oct-13 00:30N 39°43' W 075°31'0 0.0
2017-Oct-13 00:00N 39°43' W 075°31'0 0.6
2017-Oct-12 23:31N 39°43' W 075°31'611.5
2017-Oct-12 23:00N 39°48' W 075°26'2 3.5
2017-Oct-12 22:30N 39°49' W 075°24'0 0.0
2017-Oct-12 22:00N 39°49' W 075°24'0 0.0
2017-Oct-12 21:30N 39°49' W 075°24'0 0.5
2017-Oct-12 21:00N 39°49' W 075°24'2 3.1
2017-Oct-12 20:30N 39°48' W 075°26'4 7.9
2017-Oct-12 20:00N 39°45' W 075°29'2 4.5
2017-Oct-12 19:31N 39°43' W 075°31'0 0.0
2017-Oct-12 19:00N 39°43' W 075°31'0 0.0
2017-Oct-12 18:31N 39°43' W 075°31'0 0.0
2017-Oct-12 18:00N 39°43' W 075°31'0 0.0
2017-Oct-12 17:30N 39°43' W 075°31'0 0.0
2017-Oct-12 17:00N 39°43' W 075°31'0 0.0
2017-Oct-12 16:30N 39°43' W 075°31'0 0.0
2017-Oct-12 16:00N 39°43' W 075°31'0 0.0
2017-Oct-12 15:31N 39°43' W 075°31'0 0.0
2017-Oct-12 15:00N 39°43' W 075°31'0 0.0
2017-Oct-12 14:30N 39°43' W 075°31'0 0.0
2017-Oct-12 14:00N 39°43' W 075°31'0 0.0
2017-Oct-12 13:30N 39°43' W 075°31'0 0.0
2017-Oct-12 13:00N 39°43' W 075°31'0 0.0
2017-Oct-12 12:30N 39°43' W 075°31'0 0.0
2017-Oct-12 12:00N 39°43' W 075°31'0 0.0
2017-Oct-12 11:30N 39°43' W 075°31'0 0.0
2017-Oct-12 11:00N 39°43' W 075°31'5 9.0
2017-Oct-12 10:30N 39°47' W 075°28'3 5.2
2017-Oct-12 10:00N 39°48' W 075°25'0 0.0
2017-Oct-12 09:30N 39°48' W 075°25'1 2.1
2017-Oct-12 09:00N 39°48' W 075°26'1 2.5
2017-Oct-12 08:30N 39°48' W 075°25'1 2.1
2017-Oct-12 08:00N 39°49' W 075°24'5 9.5
2017-Oct-12 07:30N 39°51' W 075°18'510.4
2017-Oct-12 07:01N 39°53' W 075°12'1 1.4
2017-Oct-12 06:30N 39°53' W 075°11'0 0.0
2017-Oct-12 06:00N 39°53' W 075°11'0 0.0
2017-Oct-12 05:31N 39°53' W 075°11'0 0.0
2017-Oct-12 05:00N 39°53' W 075°11'0 0.0
2017-Oct-12 04:30N 39°53' W 075°11'0 0.0
2017-Oct-12 04:01N 39°53' W 075°11'0 0.0
2017-Oct-12 03:30N 39°53' W 075°11'0 0.0
2017-Oct-12 03:00N 39°53' W 075°11'0 0.0
2017-Oct-12 02:30N 39°53' W 075°11'0 0.0
2017-Oct-12 02:01N 39°53' W 075°11'0 0.0
2017-Oct-12 01:30N 39°53' W 075°11'0 0.0
2017-Oct-12 01:01N 39°53' W 075°11'0 0.0
2017-Oct-12 00:30N 39°53' W 075°11'0 0.0
2017-Oct-12 00:01N 39°53' W 075°11'0 0.0
2017-Oct-11 23:31N 39°53' W 075°11'0 0.0
2017-Oct-11 23:01N 39°53' W 075°11'0 0.0
2017-Oct-11 22:31N 39°53' W 075°11'0 0.0
2017-Oct-11 22:01N 39°53' W 075°11'0 0.0
2017-Oct-11 21:31N 39°53' W 075°11'0 0.0
2017-Oct-11 21:00N 39°53' W 075°11'0 1.0
2017-Oct-11 20:31N 39°53' W 075°11'3 6.5
2017-Oct-11 20:01N 39°56' W 075°08'3 7.0
2017-Oct-11 19:31N 39°59' W 075°06'1 1.8
2017-Oct-11 19:00N 39°59' W 075°04'0 0.0
2017-Oct-11 18:31N 39°59' W 075°04'0 0.0
2017-Oct-11 18:00N 39°59' W 075°04'1 1.6
2017-Oct-11 17:30N 39°59' W 075°05'4 7.8
2017-Oct-11 17:00N 39°55' W 075°08'6 0.4
2017-Oct-11 00:00N 40°00' W 075°03'4 8.9
2017-Oct-10 23:30N 40°03' W 074°59'5 9.2
2017-Oct-10 23:00N 40°05' W 074°53'4 7.1
2017-Oct-10 22:30N 40°07' W 074°50'4 7.3
2017-Oct-10 22:00N 40°08' W 074°45'0 0.2
2017-Oct-10 21:19N 40°08' W 074°45'0 0.2
2017-Oct-10 21:00N 40°08' W 074°45'0 0.0
2017-Oct-10 20:29N 40°08' W 074°45'0 0.0
2017-Oct-10 20:01N 40°08' W 074°45'0 0.0
2017-Oct-10 19:23N 40°08' W 074°45'0 0.0
2017-Oct-10 19:00N 40°08' W 074°45'0 0.0
2017-Oct-10 18:30N 40°08' W 074°45'0 0.0
2017-Oct-10 17:58N 40°08' W 074°45'0 0.0
2017-Oct-10 17:29N 40°08' W 074°45'0 0.0
2017-Oct-10 17:00N 40°08' W 074°45'0 0.0
2017-Oct-10 16:26N 40°08' W 074°45'0 0.0
2017-Oct-10 15:59N 40°08' W 074°45'3 5.6
2017-Oct-10 15:30N 40°08' W 074°49'3 6.9
2017-Oct-10 15:00N 40°05' W 074°52'7 6.7
2017-Oct-10 14:00N 40°02' W 074°60'4 7.1
2017-Oct-10 13:30N 40°00' W 075°03'2 3.3
2017-Oct-10 13:00N 39°59' W 075°04'0 0.0
2017-Oct-10 12:30N 39°59' W 075°04'0 0.0
2017-Oct-10 12:01N 39°59' W 075°04'0 0.4
2017-Oct-10 11:31N 39°59' W 075°05'3 5.3
2017-Oct-10 11:00N 39°58' W 075°08'2 3.4
2017-Oct-10 10:30N 39°59' W 075°06'0 0.1
2017-Oct-10 10:00N 39°59' W 075°06'2 4.3
2017-Oct-10 09:31N 39°57' W 075°08'4 8.4
2017-Oct-10 09:00N 39°53' W 075°09'2 3.8
2017-Oct-10 08:31N 39°53' W 075°11'0 0.0
2017-Oct-10 08:00N 39°53' W 075°11'0 0.0
2017-Oct-10 07:31N 39°53' W 075°11'0 0.0
2017-Oct-10 07:01N 39°53' W 075°11'0 0.0
2017-Oct-10 06:31N 39°53' W 075°11'0 0.0
2017-Oct-10 06:00N 39°53' W 075°11'1 2.8
2017-Oct-10 05:31N 39°52' W 075°13'3 6.4
2017-Oct-10 05:01N 39°51' W 075°16'0 0.1
2017-Oct-10 04:30N 39°51' W 075°16'5 9.1
2017-Oct-10 04:00N 39°53' W 075°11'0 0.0
2017-Oct-10 03:30N 39°53' W 075°11'0 0.0
2017-Oct-10 03:00N 39°53' W 075°11'0 0.0
2017-Oct-10 02:31N 39°53' W 075°11'0 0.0
2017-Oct-10 02:01N 39°53' W 075°11'0 0.0
2017-Oct-10 01:31N 39°53' W 075°11'0 0.0
2017-Oct-10 01:00N 39°53' W 075°11'0 0.0
2017-Oct-10 00:30N 39°53' W 075°11'0 0.0
2017-Oct-10 00:01N 39°53' W 075°11'0 0.0
2017-Oct-09 23:30N 39°53' W 075°11'0 0.0
2017-Oct-09 23:00N 39°53' W 075°11'0 0.0
2017-Oct-09 22:31N 39°53' W 075°11'0 0.0
2017-Oct-09 22:01N 39°53' W 075°11'0 0.0
2017-Oct-09 21:31N 39°53' W 075°11'0 0.0
2017-Oct-09 21:00N 39°53' W 075°11'0 0.0
2017-Oct-09 20:31N 39°53' W 075°11'0 0.0
2017-Oct-09 20:01N 39°53' W 075°11'0 0.0
2017-Oct-09 19:30N 39°53' W 075°11'0 0.0
2017-Oct-09 19:00N 39°53' W 075°11'0 0.0
2017-Oct-09 18:30N 39°53' W 075°11'0 0.0
2017-Oct-09 18:00N 39°53' W 075°11'0 0.0
2017-Oct-09 17:30N 39°53' W 075°11'0 0.0
2017-Oct-09 17:00N 39°53' W 075°11'2 4.4
2017-Oct-09 16:30N 39°52' W 075°13'0 0.1
2017-Oct-09 16:01N 39°52' W 075°13'0 0.6
2017-Oct-09 15:31N 39°52' W 075°13'2 3.8
2017-Oct-09 15:00N 39°53' W 075°11'0 0.0
2017-Oct-09 14:30N 39°53' W 075°11'0 0.0
2017-Oct-09 14:00N 39°53' W 075°11'0 0.0
2017-Oct-09 13:30N 39°53' W 075°11'0 0.0
2017-Oct-09 13:00N 39°53' W 075°11'0 0.0
2017-Oct-09 12:31N 39°53' W 075°11'0 0.0
2017-Oct-09 12:00N 39°53' W 075°11'0 0.0
2017-Oct-09 11:30N 39°53' W 075°11'2 4.4
2017-Oct-09 11:00N 39°54' W 075°08'4 8.4
2017-Oct-09 10:30N 39°58' W 075°08'4 8.4
2017-Oct-09 10:00N 40°00' W 075°03'5 9.5
2017-Oct-09 09:30N 40°03' W 074°58'4 8.9
2017-Oct-09 09:01N 40°05' W 074°53'4 7.8
2017-Oct-09 08:30N 40°08' W 074°49'3 4.0
2017-Oct-09 07:42N 40°08' W 074°45'0 1.0
2017-Oct-09 07:29N 40°08' W 074°45'2 4.6
2017-Oct-09 07:00N 40°07' W 074°48'2 4.7
2017-Oct-09 06:31N 40°08' W 074°45'0 0.0
2017-Oct-09 06:01N 40°08' W 074°45'0 0.0
2017-Oct-09 05:30N 40°08' W 074°45'0 0.0
2017-Oct-09 05:01N 40°08' W 074°45'0 0.0
2017-Oct-09 04:31N 40°08' W 074°45'0 0.0
2017-Oct-09 04:01N 40°08' W 074°45'0 0.0
2017-Oct-09 03:30N 40°08' W 074°45'0 0.0
2017-Oct-09 03:01N 40°08' W 074°45'0 0.0
2017-Oct-09 02:31N 40°08' W 074°45'0 0.0
2017-Oct-09 02:01N 40°08' W 074°45'0 0.0
2017-Oct-09 01:30N 40°08' W 074°45'0 0.0
2017-Oct-09 01:01N 40°08' W 074°45'0 0.0
2017-Oct-09 00:31N 40°08' W 074°45'2 3.4
2017-Oct-08 23:54N 40°07' W 074°48'2 5.6
2017-Oct-08 23:30N 40°06' W 074°50'4 7.5
2017-Oct-08 23:01N 40°04' W 074°54'4 8.3
2017-Oct-08 22:30N 40°03' W 074°59'4 8.0
2017-Oct-08 22:00N 40°00' W 075°03'3 5.0
2017-Oct-08 21:31N 39°59' W 075°06'0 0.2
2017-Oct-08 21:01N 39°58' W 075°06'2 3.7
2017-Oct-08 20:31N 39°58' W 075°08'3 6.6
2017-Oct-08 20:00N 39°54' W 075°08'0 0.0
2017-Oct-08 19:31N 39°54' W 075°08'0 0.0
2017-Oct-08 19:00N 39°54' W 075°08'4 8.5
2017-Oct-08 18:30N 39°52' W 075°13'0 0.7
2017-Oct-08 18:00N 39°52' W 075°13'0 0.0
2017-Oct-08 17:30N 39°52' W 075°13'1 1.3
2017-Oct-08 17:00N 39°51' W 075°14'1 1.4
2017-Oct-08 16:30N 39°52' W 075°13'2 3.7
2017-Oct-08 16:00N 39°53' W 075°11'0 0.0
2017-Oct-08 15:30N 39°53' W 075°11'0 0.0
2017-Oct-08 15:01N 39°53' W 075°11'0 0.0
2017-Oct-08 14:30N 39°53' W 075°11'0 0.0
2017-Oct-08 14:00N 39°53' W 075°11'0 0.0
2017-Oct-08 13:31N 39°53' W 075°11'0 0.0
2017-Oct-08 13:00N 39°53' W 075°11'0 0.0
2017-Oct-08 12:30N 39°53' W 075°11'0 0.0
2017-Oct-08 12:01N 39°53' W 075°11'0 0.0
2017-Oct-08 11:30N 39°53' W 075°11'0 0.0
2017-Oct-08 11:01N 39°53' W 075°11'0 0.0
2017-Oct-08 10:30N 39°53' W 075°11'0 0.0
2017-Oct-08 10:01N 39°53' W 075°11'0 0.0
2017-Oct-08 09:31N 39°53' W 075°11'0 0.0
2017-Oct-08 09:01N 39°53' W 075°11'0 0.0
2017-Oct-08 08:31N 39°53' W 075°11'0 0.0
2017-Oct-08 08:01N 39°53' W 075°11'0 0.0
2017-Oct-08 07:31N 39°53' W 075°11'0 0.0
2017-Oct-08 07:01N 39°53' W 075°11'0 0.0
2017-Oct-08 06:30N 39°53' W 075°11'0 0.0
2017-Oct-08 06:00N 39°53' W 075°11'  

Dump ship's entire track history